Time;durP1;ratioP1;P1;durP2;ratioP2;P2;SDS_P1;SDS_P2;PMS_P1;PMS_P2;Temp;Humidity;BMP_temperature;BMP_pressure;BME280_temperature;BME280_humidity;BME280_pressure;Samples;Min_cycle;Max_cycle;Signal;HPM_P1;HPM_P2
2024/02/20 00:01:41;;;;;;;2.53;0.82;;;9.60;99.90;;;;;;5018929;28;20033;-70
2024/02/20 00:04:10;;;;;;;2.25;0.80;;;9.60;99.90;;;;;;5028462;28;20086;-69
2024/02/20 00:06:38;;;;;;;1.67;0.50;;;9.50;99.90;;;;;;5019609;28;20068;-69
2024/02/20 00:09:04;;;;;;;1.58;0.98;;;9.50;99.90;;;;;;5037815;28;20033;-70
2024/02/20 00:11:30;;;;;;;2.55;0.77;;;9.40;99.90;;;;;;5018880;28;20029;-70
2024/02/20 00:13:58;;;;;;;6.72;1.35;;;9.50;99.90;;;;;;5021270;28;20406;-70
2024/02/20 00:16:24;;;;;;;3.80;1.77;;;9.40;99.90;;;;;;5021893;28;20356;-70
2024/02/20 00:18:53;;;;;;;1.05;0.60;;;9.40;99.90;;;;;;5023340;28;20099;-70
2024/02/20 00:21:18;;;;;;;2.03;0.93;;;9.30;99.90;;;;;;5020101;28;20036;-70
2024/02/20 00:23:44;;;;;;;6.60;0.63;;;9.30;99.90;;;;;;5020609;28;20104;-69
2024/02/20 00:26:10;;;;;;;0.98;0.70;;;9.20;99.90;;;;;;5007702;28;20728;-69
2024/02/20 00:28:40;;;;;;;2.92;0.85;;;9.20;99.90;;;;;;5019323;28;20026;-70
2024/02/20 00:31:09;;;;;;;2.83;1.05;;;9.20;99.90;;;;;;5035586;28;20018;-69
2024/02/20 00:33:35;;;;;;;6.43;1.33;;;9.10;99.90;;;;;;5017613;28;20037;-69
2024/02/20 00:36:05;;;;;;;2.33;0.90;;;9.10;99.90;;;;;;5014555;28;20045;-69
2024/02/20 00:38:31;;;;;;;0.60;0.45;;;9.10;99.90;;;;;;5015853;28;20437;-69
2024/02/20 00:40:57;;;;;;;6.10;1.00;;;9.10;99.90;;;;;;5022215;28;20033;-69
2024/02/20 00:43:23;;;;;;;1.83;0.52;;;9.00;99.90;;;;;;5022948;28;20033;-69
2024/02/20 00:45:49;;;;;;;7.40;1.23;;;9.00;99.90;;;;;;5020489;28;20053;-69
2024/02/20 00:48:15;;;;;;;0.73;0.43;;;8.90;99.90;;;;;;5023983;28;20042;-70
2024/02/20 00:50:41;;;;;;;1.23;0.82;;;9.00;99.90;;;;;;5020318;28;20029;-70
2024/02/20 00:53:10;;;;;;;4.35;0.73;;;8.90;99.90;;;;;;5020715;28;20386;-70
2024/02/20 00:55:36;;;;;;;0.98;0.57;;;9.00;99.90;;;;;;5020620;28;20029;-70
2024/02/20 00:58:01;;;;;;;4.60;1.55;;;9.00;99.90;;;;;;5004199;28;20033;-70
2024/02/20 01:00:28;;;;;;;1.48;0.55;;;9.00;99.90;;;;;;5024835;28;20022;-70
2024/02/20 01:02:53;;;;;;;2.67;1.25;;;9.00;99.90;;;;;;5007586;28;20386;-70
2024/02/20 01:05:19;;;;;;;1.88;0.85;;;9.00;99.90;;;;;;5009206;28;20030;-70
2024/02/20 01:07:45;;;;;;;1.70;1.00;;;8.90;99.90;;;;;;5035140;28;20037;-70
2024/02/20 01:10:12;;;;;;;1.75;0.95;;;8.90;99.90;;;;;;5019440;28;20029;-69
2024/02/20 01:12:38;;;;;;;2.05;1.00;;;8.80;99.90;;;;;;5017335;28;20045;-70
2024/02/20 01:15:06;;;;;;;6.80;0.93;;;8.70;99.90;;;;;;5020525;28;20037;-70
2024/02/20 01:17:32;;;;;;;1.48;0.57;;;8.70;99.90;;;;;;5022549;28;20029;-69
2024/02/20 01:19:58;;;;;;;5.63;0.90;;;8.60;99.90;;;;;;5021101;28;20486;-69
2024/02/20 01:22:25;;;;;;;1.35;1.13;;;8.60;99.90;;;;;;5024340;28;20485;-70
2024/02/20 01:24:51;;;;;;;2.10;1.02;;;8.60;99.90;;;;;;5018600;28;20026;-70
2024/02/20 01:27:16;;;;;;;6.65;1.60;;;8.60;99.90;;;;;;5023187;28;20041;-69
2024/02/20 01:29:44;;;;;;;2.40;1.10;;;8.50;99.90;;;;;;5018978;28;20018;-69
2024/02/20 01:32:10;;;;;;;10.52;1.20;;;8.50;99.90;;;;;;5012270;28;20082;-69
2024/02/20 01:34:36;;;;;;;4.05;1.38;;;8.40;99.90;;;;;;5019768;28;20111;-70
2024/02/20 01:37:02;;;;;;;5.53;0.70;;;8.40;99.90;;;;;;5018370;28;20022;-69
2024/02/20 01:39:28;;;;;;;1.42;1.33;;;8.30;99.90;;;;;;5020870;28;20366;-69
2024/02/20 01:41:57;;;;;;;7.65;1.20;;;8.30;99.90;;;;;;5021006;28;20034;-69
2024/02/20 01:44:31;;;;;;;1.02;0.52;;;8.30;99.90;;;;;;5021704;28;20054;-69
2024/02/20 01:46:58;;;;;;;4.25;1.05;;;8.20;99.90;;;;;;5021443;28;20018;-69
2024/02/20 01:49:25;;;;;;;3.08;0.60;;;8.20;99.90;;;;;;5035327;28;20045;-69
2024/02/20 01:51:54;;;;;;;3.35;0.80;;;8.10;99.90;;;;;;5016564;28;20026;-70
2024/02/20 01:54:21;;;;;;;3.40;0.75;;;8.00;99.90;;;;;;5003688;28;20079;-70
2024/02/20 01:56:48;;;;;;;1.08;0.85;;;8.00;99.90;;;;;;5018737;28;20029;-70
2024/02/20 01:59:14;;;;;;;5.05;1.02;;;7.90;99.90;;;;;;5020837;28;20147;-70
2024/02/20 02:01:40;;;;;;;1.83;0.65;;;7.90;99.90;;;;;;5018332;28;20022;-70
2024/02/20 02:04:06;;;;;;;1.85;1.17;;;8.00;99.90;;;;;;5031829;28;20516;-70
2024/02/20 02:06:38;;;;;;;0.68;0.60;;;8.00;99.90;;;;;;5011943;28;20109;-70
2024/02/20 02:09:04;;;;;;;4.85;1.02;;;8.00;99.90;;;;;;5022534;28;20108;-70
2024/02/20 02:11:30;;;;;;;1.95;0.93;;;8.00;99.90;;;;;;5024329;28;20453;-70
2024/02/20 02:13:56;;;;;;;4.82;0.63;;;8.00;99.90;;;;;;5018573;28;20037;-69
2024/02/20 02:16:22;;;;;;;11.75;1.83;;;8.00;99.90;;;;;;5041806;28;20638;-69
2024/02/20 02:18:49;;;;;;;4.78;0.80;;;8.00;99.90;;;;;;5021712;28;20055;-69
2024/02/20 02:21:15;;;;;;;3.67;2.28;;;7.90;99.90;;;;;;5024092;28;20033;-69
2024/02/20 02:23:40;;;;;;;2.08;1.40;;;7.80;99.90;;;;;;5021804;28;20030;-69
2024/02/20 02:26:11;;;;;;;2.85;0.70;;;7.80;99.90;;;;;;5023699;28;20029;-69
2024/02/20 02:28:37;;;;;;;9.73;1.33;;;7.80;99.90;;;;;;5020327;28;20369;-69
2024/02/20 02:31:03;;;;;;;4.05;1.02;;;7.80;99.90;;;;;;5021623;28;20431;-69
2024/02/20 02:33:30;;;;;;;6.20;1.23;;;7.80;99.90;;;;;;5037490;28;20064;-69
2024/02/20 02:35:59;;;;;;;5.97;2.10;;;7.90;99.90;;;;;;5025133;28;20025;-69
2024/02/20 02:38:25;;;;;;;10.02;1.73;;;8.00;99.90;;;;;;5015097;28;20099;-69
2024/02/20 02:40:51;;;;;;;7.60;1.75;;;8.00;99.90;;;;;;5022883;28;20431;-69
2024/02/20 02:43:16;;;;;;;8.43;1.92;;;8.00;99.90;;;;;;5023044;28;20036;-70
2024/02/20 02:45:42;;;;;;;5.35;1.95;;;8.10;99.90;;;;;;5020561;28;20057;-70
2024/02/20 02:48:08;;;;;;;10.93;1.10;;;8.20;99.90;;;;;;5020470;28;20039;-70
2024/02/20 02:50:34;;;;;;;9.27;2.65;;;8.20;99.90;;;;;;5022193;28;20014;-70
2024/02/20 02:53:00;;;;;;;4.85;1.80;;;8.30;99.90;;;;;;5020340;28;20076;-70
2024/02/20 02:55:26;;;;;;;3.53;0.82;;;8.40;99.90;;;;;;5021945;28;20363;-70
2024/02/20 02:57:52;;;;;;;9.57;2.10;;;8.40;99.90;;;;;;5021113;28;20108;-70
2024/02/20 03:00:18;;;;;;;5.13;1.98;;;8.40;99.90;;;;;;5022275;28;20105;-70
2024/02/20 03:02:46;;;;;;;3.08;1.17;;;8.50;99.90;;;;;;5019555;28;20041;-70
2024/02/20 03:05:13;;;;;;;4.95;1.75;;;8.40;99.90;;;;;;5022422;28;20025;-70
2024/02/20 03:07:39;;;;;;;14.82;2.92;;;8.40;99.90;;;;;;5019634;28;20025;-70
2024/02/20 03:10:07;;;;;;;8.63;3.67;;;8.30;99.90;;;;;;5021202;28;20029;-69
2024/02/20 03:12:33;;;;;;;13.18;2.55;;;8.40;99.90;;;;;;5025473;28;20037;-70
2024/02/20 03:14:59;;;;;;;7.07;0.95;;;8.40;99.90;;;;;;5021694;28;20026;-70
2024/02/20 03:17:25;;;;;;;9.10;1.52;;;8.30;99.90;;;;;;5021422;28;20073;-70
2024/02/20 03:19:51;;;;;;;12.48;1.85;;;8.30;99.90;;;;;;5023297;28;20026;-69
2024/02/20 03:22:18;;;;;;;17.98;1.60;;;8.30;99.90;;;;;;5024448;28;20037;-69
2024/02/20 03:24:45;;;;;;;9.93;1.38;;;8.30;99.90;;;;;;5018263;28;20014;-69
2024/02/20 03:27:11;;;;;;;8.50;1.02;;;8.30;99.90;;;;;;5035923;28;20026;-69
2024/02/20 03:29:37;;;;;;;2.75;0.77;;;8.30;99.90;;;;;;5022747;28;20459;-69
2024/02/20 03:32:03;;;;;;;2.38;0.60;;;8.20;99.90;;;;;;5017528;28;20101;-69
2024/02/20 03:34:29;;;;;;;5.85;2.13;;;8.20;99.90;;;;;;5008530;28;20033;-69
2024/02/20 03:36:54;;;;;;;20.92;2.42;;;8.20;99.90;;;;;;5020337;28;20038;-69
2024/02/20 03:39:23;;;;;;;6.80;1.00;;;8.20;99.90;;;;;;5034106;28;20033;-69
2024/02/20 03:41:49;;;;;;;11.13;2.60;;;8.20;99.90;;;;;;5018779;28;20022;-69
2024/02/20 03:44:15;;;;;;;6.90;2.15;;;8.20;99.90;;;;;;5020052;28;20037;-69
2024/02/20 03:46:40;;;;;;;4.30;1.50;;;8.20;99.90;;;;;;5018644;28;20021;-69
2024/02/20 03:49:07;;;;;;;7.13;1.17;;;8.20;99.90;;;;;;5021195;28;20037;-69
2024/02/20 03:51:33;;;;;;;5.25;2.05;;;8.20;99.90;;;;;;5022467;28;20026;-69
2024/02/20 03:53:59;;;;;;;3.33;1.42;;;8.20;99.90;;;;;;5021616;28;20039;-69
2024/02/20 03:56:25;;;;;;;3.25;1.40;;;8.10;99.90;;;;;;5019683;28;20030;-69
2024/02/20 03:58:51;;;;;;;6.93;1.98;;;8.20;99.90;;;;;;5018992;28;20040;-69
2024/02/20 04:01:17;;;;;;;3.53;1.27;;;8.10;99.90;;;;;;5019272;28;20707;-69
2024/02/20 04:03:43;;;;;;;2.10;1.15;;;8.20;99.90;;;;;;5018638;28;20453;-69
2024/02/20 04:06:09;;;;;;;4.85;1.55;;;8.10;99.90;;;;;;5021987;28;20096;-68
2024/02/20 04:08:35;;;;;;;3.17;1.63;;;8.20;99.90;;;;;;5017235;28;20490;-69
2024/02/20 04:11:01;;;;;;;5.75;1.05;;;8.20;99.90;;;;;;5019596;28;20030;-69
2024/02/20 04:13:26;;;;;;;4.45;1.80;;;8.30;99.90;;;;;;5020041;28;20159;-70
2024/02/20 04:15:52;;;;;;;4.13;1.17;;;8.30;99.90;;;;;;5036752;28;20509;-70
2024/02/20 04:18:18;;;;;;;7.97;1.95;;;8.30;99.90;;;;;;5021483;28;20049;-70
2024/02/20 04:20:44;;;;;;;4.25;1.33;;;8.30;99.90;;;;;;5020140;28;20371;-70
2024/02/20 04:23:10;;;;;;;3.22;1.02;;;8.30;99.90;;;;;;5020618;28;20565;-70
2024/02/20 04:25:35;;;;;;;11.70;1.65;;;8.30;99.90;;;;;;5019451;28;20028;-70
2024/02/20 04:28:01;;;;;;;3.45;0.85;;;8.30;99.90;;;;;;5014437;28;20026;-70
2024/02/20 04:30:27;;;;;;;6.85;1.13;;;8.30;99.90;;;;;;5019149;28;20037;-70
2024/02/20 04:32:52;;;;;;;5.15;1.15;;;8.20;99.90;;;;;;5016060;28;20109;-69
2024/02/20 04:35:18;;;;;;;10.20;1.35;;;8.30;99.90;;;;;;5021370;28;20037;-69
2024/02/20 04:37:47;;;;;;;10.35;2.10;;;8.30;99.90;;;;;;5019741;28;20416;-70
2024/02/20 04:40:13;;;;;;;10.73;1.27;;;8.30;99.90;;;;;;5036537;28;20029;-70
2024/02/20 04:42:39;;;;;;;14.82;1.27;;;8.30;99.90;;;;;;5016186;28;20041;-70
2024/02/20 04:45:05;;;;;;;1.73;0.88;;;8.20;99.90;;;;;;5037330;28;20610;-69
2024/02/20 04:47:31;;;;;;;4.43;0.95;;;8.20;99.90;;;;;;5017558;28;20375;-70
2024/02/20 04:49:57;;;;;;;6.57;1.77;;;8.30;99.90;;;;;;5019308;28;20018;-72
2024/02/20 04:52:24;;;;;;;10.00;1.67;;;8.30;99.90;;;;;;5018882;28;20033;-70
2024/02/20 04:54:52;;;;;;;2.65;1.17;;;8.30;99.90;;;;;;5018969;28;20394;-70
2024/02/20 04:57:18;;;;;;;4.20;0.63;;;8.40;99.90;;;;;;5030904;28;20037;-70
2024/02/20 04:59:45;;;;;;;27.13;2.10;;;8.30;99.90;;;;;;5019840;28;20356;-69
2024/02/20 05:02:11;;;;;;;4.63;1.75;;;8.40;99.90;;;;;;5017430;28;20052;-69
2024/02/20 05:04:36;;;;;;;15.40;2.03;;;8.40;99.90;;;;;;5020990;28;20036;-70
2024/02/20 05:07:03;;;;;;;8.43;0.73;;;8.30;99.90;;;;;;5035686;28;20026;-70
2024/02/20 05:09:28;;;;;;;2.20;1.00;;;8.30;99.90;;;;;;5019571;28;20029;-70
2024/02/20 05:11:54;;;;;;;4.38;1.23;;;8.30;99.90;;;;;;5018206;28;20033;-70
2024/02/20 05:14:20;;;;;;;6.38;2.45;;;8.40;99.90;;;;;;5018459;28;20037;-69
2024/02/20 05:16:46;;;;;;;4.25;1.50;;;8.30;99.90;;;;;;5021141;28;20033;-69
2024/02/20 05:19:11;;;;;;;1.63;0.88;;;8.30;99.90;;;;;;5028714;28;20068;-70
2024/02/20 05:21:37;;;;;;;5.30;0.98;;;8.30;99.90;;;;;;5017416;28;20072;-69
2024/02/20 05:24:03;;;;;;;5.07;1.00;;;8.30;99.90;;;;;;5009667;28;20049;-71
2024/02/20 05:26:29;;;;;;;2.97;1.20;;;8.30;99.90;;;;;;5016138;28;20112;-69
2024/02/20 05:28:54;;;;;;;1.08;0.57;;;8.30;99.90;;;;;;5031960;28;20036;-69
2024/02/20 05:31:31;;;;;;;9.27;1.33;;;8.30;99.90;;;;;;5018130;28;20462;-71
2024/02/20 05:33:58;;;;;;;8.10;1.27;;;8.20;99.90;;;;;;5015544;28;20033;-70
2024/02/20 05:36:33;;;;;;;4.15;0.90;;;8.20;99.90;;;;;;5035298;28;20025;-70
2024/02/20 05:39:00;;;;;;;3.15;0.65;;;8.20;99.90;;;;;;5015481;28;20363;-70
2024/02/20 05:41:30;;;;;;;10.90;1.05;;;8.10;99.90;;;;;;5006854;28;20036;-70
2024/02/20 05:44:00;;;;;;;15.98;1.75;;;8.10;99.90;;;;;;5014771;28;20121;-70
2024/02/20 05:46:32;;;;;;;4.63;1.35;;;8.10;99.90;;;;;;5018394;28;20041;-70
2024/02/20 05:48:58;;;;;;;1.95;0.85;;;8.10;99.90;;;;;;5015549;28;20033;-70
2024/02/20 05:51:28;;;;;;;1.92;0.90;;;8.10;99.90;;;;;;5006257;28;20410;-70
2024/02/20 05:53:54;;;;;;;3.20;0.80;;;8.10;99.90;;;;;;5014090;28;20063;-70
2024/02/20 05:56:20;;;;;;;5.80;1.90;;;8.10;99.90;;;;;;5020037;28;20389;-69
2024/02/20 05:58:46;;;;;;;1.98;0.60;;;8.00;99.90;;;;;;5009003;28;20100;-70
2024/02/20 06:01:13;;;;;;;3.85;1.58;;;8.10;99.90;;;;;;5011722;28;20089;-70
2024/02/20 06:03:40;;;;;;;1.55;0.68;;;8.10;99.90;;;;;;5025048;28;20026;-69
2024/02/20 06:06:10;;;;;;;2.72;0.73;;;8.00;99.90;;;;;;5011586;28;20529;-70
2024/02/20 06:08:41;;;;;;;4.35;2.25;;;8.00;99.90;;;;;;5025840;28;20026;-75
2024/02/20 06:11:11;;;;;;;;;;;8.00;99.90;;;;;;4991111;28;20037;-68
2024/02/20 06:13:37;;;;;;;1.33;0.95;;;8.00;99.90;;;;;;5007024;28;19913;-68
2024/02/20 06:16:03;;;;;;;7.63;1.58;;;8.00;99.90;;;;;;5011355;28;20025;-68
2024/02/20 06:18:29;;;;;;;1.27;1.02;;;8.00;99.90;;;;;;5011175;28;20502;-68
2024/02/20 06:20:55;;;;;;;10.25;2.05;;;7.90;99.90;;;;;;5011403;28;20061;-68
2024/02/20 06:23:20;;;;;;;3.55;1.23;;;7.80;99.90;;;;;;5009150;28;20025;-67
2024/02/20 06:25:46;;;;;;;3.42;1.10;;;7.80;99.90;;;;;;5010891;28;20053;-68
2024/02/20 06:28:14;;;;;;;6.63;2.53;;;7.80;99.90;;;;;;5010842;28;20099;-68
2024/02/20 06:30:41;;;;;;;1.70;0.93;;;7.70;99.90;;;;;;5011369;28;20018;-68
2024/02/20 06:33:07;;;;;;;9.80;2.17;;;7.60;99.90;;;;;;5009065;28;20037;-67
2024/02/20 06:35:32;;;;;;;14.48;1.92;;;7.50;99.90;;;;;;5010783;28;20030;-71
2024/02/20 06:37:58;;;;;;;4.18;0.80;;;7.50;99.90;;;;;;5025189;28;20037;-68
2024/02/20 06:40:24;;;;;;;13.90;2.13;;;7.40;99.90;;;;;;5011170;28;20021;-68
2024/02/20 06:42:49;;;;;;;0.95;0.50;;;7.30;99.90;;;;;;5010100;28;20034;-68
2024/02/20 06:45:15;;;;;;;3.08;1.40;;;7.30;99.90;;;;;;5011507;28;20076;-68
2024/02/20 06:47:42;;;;;;;7.32;2.65;;;7.40;99.90;;;;;;5008467;28;20032;-69
2024/02/20 06:50:11;;;;;;;2.63;1.02;;;7.20;99.90;;;;;;5005659;28;20227;-69
2024/02/20 06:52:40;;;;;;;4.35;1.35;;;7.20;99.90;;;;;;5022503;28;20490;-69
2024/02/20 06:55:08;;;;;;;2.10;1.13;;;7.20;99.90;;;;;;5028036;28;20030;-68
2024/02/20 06:57:35;;;;;;;4.68;1.50;;;7.10;99.90;;;;;;5010579;28;20070;-69
2024/02/20 07:00:04;;;;;;;4.68;0.98;;;7.10;99.90;;;;;;5014423;28;20076;-69
2024/02/20 07:02:31;;;;;;;3.35;1.30;;;7.10;99.90;;;;;;5013610;28;20029;-69
2024/02/20 07:04:56;;;;;;;3.47;1.13;;;7.10;99.90;;;;;;5021084;28;20018;-69
2024/02/20 07:07:24;;;;;;;8.52;2.22;;;7.20;99.90;;;;;;5012441;28;20044;-69
2024/02/20 07:09:50;;;;;;;5.90;2.05;;;7.10;99.90;;;;;;5012974;28;20017;-68
2024/02/20 07:12:16;;;;;;;4.30;1.25;;;7.10;99.90;;;;;;5013105;28;20038;-69
2024/02/20 07:14:42;;;;;;;1.23;0.70;;;7.20;99.90;;;;;;5013187;28;20032;-69
2024/02/20 07:17:08;;;;;;;11.55;1.45;;;7.20;99.90;;;;;;5013476;28;20030;-69
2024/02/20 07:19:33;;;;;;;4.85;1.67;;;7.20;99.90;;;;;;5016968;28;20057;-69
2024/02/20 07:21:59;;;;;;;13.02;1.25;;;7.30;99.90;;;;;;4996005;28;20025;-69
2024/02/20 07:24:25;;;;;;;8.65;1.58;;;7.30;99.90;;;;;;5012294;28;20463;-69
2024/02/20 07:26:50;;;;;;;3.08;1.80;;;7.30;99.90;;;;;;5021187;28;20042;-69
2024/02/20 07:29:18;;;;;;;9.25;1.80;;;7.30;99.90;;;;;;5009162;28;20037;-69
2024/02/20 07:31:47;;;;;;;4.03;1.33;;;7.40;99.90;;;;;;5014171;28;20175;-70
2024/02/20 07:34:13;;;;;;;2.80;1.13;;;7.50;99.90;;;;;;5027640;28;20034;-69
2024/02/20 07:36:39;;;;;;;3.55;0.98;;;7.50;99.90;;;;;;5012981;28;20030;-70
2024/02/20 07:39:05;;;;;;;8.50;2.40;;;7.60;99.90;;;;;;5013395;28;20109;-69
2024/02/20 07:41:31;;;;;;;8.05;1.63;;;7.60;99.90;;;;;;5013018;28;20224;-69
2024/02/20 07:43:57;;;;;;;6.00;2.47;;;7.70;99.90;;;;;;5011191;28;20060;-69
2024/02/20 07:46:22;;;;;;;5.55;1.67;;;7.80;99.90;;;;;;5014252;28;20022;-68
2024/02/20 07:48:48;;;;;;;6.00;2.67;;;7.90;99.90;;;;;;5011884;28;20034;-69
2024/02/20 07:51:16;;;;;;;13.05;2.95;;;8.00;99.90;;;;;;5012753;28;20030;-68
2024/02/20 07:53:43;;;;;;;12.18;1.83;;;8.00;99.90;;;;;;5010994;28;20065;-69
2024/02/20 07:56:09;;;;;;;8.35;2.30;;;8.10;99.90;;;;;;5029084;28;20036;-69
2024/02/20 07:58:40;;;;;;;2.17;1.02;;;8.10;99.90;;;;;;5028158;28;20026;-68
2024/02/20 08:01:09;;;;;;;16.10;2.30;;;8.10;99.90;;;;;;5012491;28;20441;-69
2024/02/20 08:03:35;;;;;;;2.63;1.02;;;8.00;99.90;;;;;;5027118;28;20538;-68
2024/02/20 08:06:00;;;;;;;2.25;1.00;;;8.00;99.90;;;;;;5013773;28;20104;-68
2024/02/20 08:08:26;;;;;;;2.28;0.93;;;7.90;99.90;;;;;;5011727;28;20101;-68
2024/02/20 08:10:52;;;;;;;3.60;2.28;;;7.90;99.90;;;;;;4996108;28;20033;-68
2024/02/20 08:13:21;;;;;;;5.32;1.23;;;7.90;99.90;;;;;;5012555;28;20033;-70
2024/02/20 08:15:47;;;;;;;2.15;0.93;;;7.80;99.90;;;;;;5012037;28;20112;-70
2024/02/20 08:18:13;;;;;;;7.28;2.28;;;7.80;99.90;;;;;;5012850;28;20137;-70
2024/02/20 08:20:39;;;;;;;10.77;1.88;;;7.80;99.90;;;;;;5013386;28;20030;-70
2024/02/20 08:23:05;;;;;;;3.63;1.38;;;7.90;99.90;;;;;;5013557;28;20030;-70
2024/02/20 08:25:30;;;;;;;7.07;2.00;;;8.00;99.90;;;;;;5028759;28;20022;-69
2024/02/20 08:27:56;;;;;;;2.50;1.15;;;8.10;99.90;;;;;;5011074;28;20026;-69
2024/02/20 08:30:25;;;;;;;10.98;3.17;;;8.20;99.90;;;;;;5012733;28;20034;-70
2024/02/20 08:32:50;;;;;;;3.55;1.75;;;8.30;99.90;;;;;;5013784;28;20057;-70
2024/02/20 08:35:17;;;;;;;8.88;2.13;;;8.40;99.90;;;;;;5011849;28;20410;-69
2024/02/20 08:37:43;;;;;;;1.65;1.15;;;8.50;99.90;;;;;;5028044;28;20026;-69
2024/02/20 08:40:10;;;;;;;15.75;2.13;;;8.50;99.90;;;;;;5013393;28;20382;-69
2024/02/20 08:42:36;;;;;;;4.95;1.80;;;8.70;99.90;;;;;;5027611;28;20103;-69
2024/02/20 08:45:04;;;;;;;3.58;1.80;;;8.80;99.90;;;;;;5012984;28;20029;-69
2024/02/20 08:47:32;;;;;;;1.52;1.05;;;8.70;99.90;;;;;;5011906;28;20377;-69
2024/02/20 08:49:57;;;;;;;4.55;1.98;;;8.70;99.90;;;;;;5013073;28;20034;-69
2024/02/20 08:52:23;;;;;;;1.67;1.08;;;8.80;99.90;;;;;;5012227;28;20481;-69
2024/02/20 08:54:49;;;;;;;6.45;2.63;;;9.00;99.90;;;;;;5012073;28;20378;-69
2024/02/20 08:57:15;;;;;;;3.13;1.90;;;9.20;99.90;;;;;;5010973;28;20064;-69
2024/02/20 08:59:41;;;;;;;7.20;2.30;;;9.30;99.90;;;;;;4995032;28;20145;-69
2024/02/20 09:02:06;;;;;;;13.02;1.98;;;9.50;99.90;;;;;;5026714;28;20108;-70
2024/02/20 09:04:32;;;;;;;9.65;1.45;;;9.60;99.90;;;;;;5012276;28;20596;-70
2024/02/20 09:06:58;;;;;;;1.83;0.88;;;9.60;99.90;;;;;;5010574;28;20505;-69
2024/02/20 09:09:24;;;;;;;3.30;1.13;;;9.40;99.90;;;;;;5007768;28;20049;-69
2024/02/20 09:11:51;;;;;;;4.07;1.60;;;9.50;99.90;;;;;;5008749;28;20053;-69
2024/02/20 09:14:18;;;;;;;20.13;5.57;;;9.60;99.90;;;;;;5009610;28;20025;-69
2024/02/20 09:16:45;;;;;;;4.00;2.08;;;9.80;99.90;;;;;;5010935;28;20028;-69
2024/02/20 09:19:11;;;;;;;9.77;2.83;;;9.80;99.90;;;;;;5026520;28;20026;-68
2024/02/20 09:21:38;;;;;;;2.72;1.98;;;9.70;99.90;;;;;;5010885;28;20032;-68
2024/02/20 09:24:04;;;;;;;2.83;1.20;;;9.70;99.90;;;;;;5009544;28;20113;-68
2024/02/20 09:26:33;;;;;;;4.55;2.05;;;9.60;99.90;;;;;;5027431;28;20091;-69
2024/02/20 09:28:58;;;;;;;3.88;1.30;;;9.80;99.90;;;;;;5011352;28;20037;-69
2024/02/20 09:31:24;;;;;;;3.40;1.42;;;9.40;99.90;;;;;;5012078;28;20025;-69
2024/02/20 09:33:50;;;;;;;9.35;1.88;;;9.10;99.90;;;;;;5009167;28;20029;-68
2024/02/20 09:36:16;;;;;;;5.82;1.67;;;9.30;99.90;;;;;;5012138;28;20033;-69
2024/02/20 09:38:41;;;;;;;2.95;1.38;;;9.30;99.90;;;;;;5011158;28;20065;-68
2024/02/20 09:41:10;;;;;;;4.28;1.73;;;9.50;99.90;;;;;;5011927;28;20137;-68
2024/02/20 09:43:39;;;;;;;6.57;2.22;;;9.50;99.90;;;;;;5010472;28;20528;-69
2024/02/20 09:46:09;;;;;;;11.00;2.58;;;9.60;99.90;;;;;;5011983;28;20025;-69
2024/02/20 09:48:35;;;;;;;13.18;1.90;;;9.40;99.90;;;;;;5009740;28;20029;-69
2024/02/20 09:51:03;;;;;;;3.63;1.08;;;9.60;99.90;;;;;;5010800;28;20084;-69
2024/02/20 09:53:31;;;;;;;3.00;1.10;;;9.80;99.90;;;;;;5026375;28;20037;-69
2024/02/20 09:55:57;;;;;;;5.25;1.35;;;9.90;99.90;;;;;;5010688;28;20044;-69
2024/02/20 09:58:23;;;;;;;12.23;1.88;;;9.80;99.90;;;;;;5010153;28;20034;-69
2024/02/20 10:00:53;;;;;;;5.88;1.50;;;9.80;99.90;;;;;;5010379;28;20022;-69
2024/02/20 10:03:19;;;;;;;10.13;2.35;;;9.80;99.90;;;;;;5010846;28;20397;-69
2024/02/20 10:05:45;;;;;;;9.07;1.80;;;9.80;99.90;;;;;;5010188;28;20359;-69
2024/02/20 10:08:11;;;;;;;6.32;2.58;;;9.90;99.90;;;;;;5009981;28;20088;-69
2024/02/20 10:10:38;;;;;;;13.57;1.80;;;10.20;99.90;;;;;;5010460;28;20492;-70
2024/02/20 10:13:06;;;;;;;3.60;1.30;;;10.50;99.90;;;;;;5025168;28;20075;-69
2024/02/20 10:15:31;;;;;;;3.95;2.17;;;10.60;99.90;;;;;;5011551;28;20033;-69
2024/02/20 10:17:59;;;;;;;6.50;1.60;;;10.50;99.90;;;;;;5011265;28;20064;-70
2024/02/20 10:20:26;;;;;;;4.47;1.00;;;10.70;99.90;;;;;;5010573;28;20026;-68
2024/02/20 10:23:01;;;;;;;1.75;0.98;;;10.70;99.90;;;;;;5009147;28;20038;-68
2024/02/20 10:25:27;;;;;;;6.35;2.05;;;11.00;99.90;;;;;;5010258;28;20081;-68
2024/02/20 10:27:53;;;;;;;2.38;1.05;;;11.00;99.90;;;;;;5014645;28;20160;-69
2024/02/20 10:30:19;;;;;;;1.98;1.23;;;11.10;99.90;;;;;;5015571;28;20029;-70
2024/02/20 10:32:45;;;;;;;13.23;1.30;;;11.20;99.90;;;;;;5014181;28;20145;-69
2024/02/20 10:35:11;;;;;;;7.47;1.77;;;11.50;99.90;;;;;;5015093;28;20040;-69
2024/02/20 10:37:38;;;;;;;5.88;1.27;;;11.60;99.90;;;;;;5010390;28;20113;-70
2024/02/20 10:40:11;;;;;;;9.25;2.67;;;11.80;99.90;;;;;;5018762;28;20104;-69
2024/02/20 10:42:39;;;;;;;9.25;1.05;;;11.90;99.90;;;;;;4997298;28;20116;-70
2024/02/20 10:45:10;;;;;;;4.10;0.55;;;12.10;99.90;;;;;;5009497;28;20069;-69
2024/02/20 10:47:47;;;;;;;;;;;12.00;99.90;;;;;;5010205;28;20049;-69
2024/02/20 10:50:14;;;;;;;3.67;1.15;;;11.90;99.90;;;;;;5007815;28;19913;-69
2024/02/20 10:52:42;;;;;;;2.00;0.88;;;11.70;99.90;;;;;;5012046;28;20024;-69
2024/02/20 10:55:11;;;;;;;0.80;0.68;;;11.70;99.90;;;;;;5013974;28;20544;-69
2024/02/20 10:57:41;;;;;;;10.00;1.40;;;11.60;99.90;;;;;;5013480;28;20044;-69
2024/02/20 11:00:09;;;;;;;4.15;1.00;;;11.60;99.90;;;;;;5005212;28;20479;-69
2024/02/20 11:02:43;;;;;;;11.95;1.70;;;11.40;99.90;;;;;;5016672;28;20037;-69
2024/02/20 11:05:12;;;;;;;2.08;0.85;;;11.90;99.90;;;;;;5021558;28;20028;-68
2024/02/20 11:07:38;;;;;;;3.17;0.80;;;12.10;99.90;;;;;;5012099;28;20021;-69
2024/02/20 11:10:22;;;;;;;2.72;1.23;;;12.20;99.90;;;;;;5014288;28;20026;-69
2024/02/20 11:12:49;;;;;;;8.95;1.27;;;12.10;99.90;;;;;;5013314;28;20072;-69
2024/02/20 11:15:21;;;;;;;1.27;0.82;;;11.90;99.90;;;;;;5012285;28;20525;-69
2024/02/20 11:17:47;;;;;;;;;;;11.80;99.90;;;;;;5012745;28;20030;-68
2024/02/20 11:20:18;;;;;;;3.00;1.27;;;11.50;99.90;;;;;;5012378;28;19909;-68
2024/02/20 11:22:45;;;;;;;5.88;0.75;;;11.30;99.90;;;;;;5012968;28;20506;-68
2024/02/20 11:25:20;;;;;;;11.60;1.15;;;11.40;99.90;;;;;;5012281;28;20038;-68
2024/02/20 11:27:47;;;;;;;5.22;0.80;;;11.40;99.90;;;;;;5009498;28;20108;-68
2024/02/20 11:30:20;;;;;;;5.88;1.23;;;11.50;99.90;;;;;;5012369;28;20106;-73
2024/02/20 11:32:52;;;;;;;7.75;1.98;;;11.60;99.90;;;;;;5012484;28;20076;-68
2024/02/20 11:35:31;;;;;;;3.92;1.63;;;11.10;99.90;;;;;;5011430;28;20040;-68
2024/02/20 11:37:58;;;;;;;2.22;1.55;;;11.30;99.90;;;;;;5011228;28;20140;-68
2024/02/20 11:40:34;;;;;;;3.10;1.02;;;11.50;99.90;;;;;;5028918;28;20112;-68
2024/02/20 11:43:04;;;;;;;19.52;1.90;;;11.40;99.90;;;;;;5011474;28;20437;-68
2024/02/20 11:45:31;;;;;;;7.65;1.35;;;11.70;99.90;;;;;;5028078;28;20117;-68
2024/02/20 11:48:08;;;;;;;8.40;0.77;;;11.90;99.90;;;;;;5011334;28;20638;-68
2024/02/20 11:50:42;;;;;;;2.85;0.88;;;12.40;99.90;;;;;;5013372;28;20034;-68
2024/02/20 11:53:15;;;;;;;12.75;1.50;;;13.10;99.90;;;;;;4998512;28;20034;-69
2024/02/20 11:55:44;;;;;;;5.28;1.30;;;13.30;99.90;;;;;;5016047;28;20026;-69
2024/02/20 11:58:16;;;;;;;4.93;1.30;;;15.30;99.90;;;;;;5026920;28;20113;-69
2024/02/20 12:00:43;;;;;;;3.25;1.00;;;15.80;97.00;;;;;;5011844;28;20124;-69
2024/02/20 12:03:09;;;;;;;6.40;0.95;;;17.50;92.50;;;;;;5011601;28;20113;-69
2024/02/20 12:05:40;;;;;;;12.40;1.40;;;18.30;84.10;;;;;;5010960;28;20121;-69
2024/02/20 12:08:16;;;;;;;4.10;0.98;;;16.70;86.40;;;;;;5011293;28;20021;-68
2024/02/20 12:10:43;;;;;;;8.43;1.30;;;17.70;86.30;;;;;;5012952;28;20017;-69
2024/02/20 12:13:17;;;;;;;5.43;0.85;;;17.30;85.50;;;;;;5006810;28;20030;-69
2024/02/20 12:15:50;;;;;;;3.78;0.85;;;16.30;86.70;;;;;;5010891;28;20026;-69
2024/02/20 12:18:27;;;;;;;3.38;0.80;;;16.20;91.20;;;;;;5012104;28;20029;-69
2024/02/20 12:21:05;;;;;;;4.57;1.00;;;17.20;88.60;;;;;;5012553;28;20069;-68
2024/02/20 12:23:31;;;;;;;4.07;1.55;;;15.30;90.70;;;;;;5009789;28;20018;-69
2024/02/20 12:26:10;;;;;;;13.05;2.38;;;14.40;93.90;;;;;;5012906;28;20030;-69
2024/02/20 12:28:38;;;;;;;3.10;0.98;;;13.60;95.20;;;;;;5012185;28;20084;-69
2024/02/20 12:31:05;;;;;;;3.00;0.80;;;13.10;98.20;;;;;;5010549;28;20553;-69
2024/02/20 12:33:35;;;;;;;6.38;1.08;;;13.00;99.70;;;;;;5004836;28;20116;-69
2024/02/20 12:36:05;;;;;;;9.93;1.70;;;12.50;99.90;;;;;;4994638;28;20086;-69
2024/02/20 12:38:30;;;;;;;8.77;0.88;;;12.10;99.90;;;;;;5010108;28;20045;-69
2024/02/20 12:40:56;;;;;;;4.70;1.45;;;12.20;99.90;;;;;;5011805;28;20038;-69
2024/02/20 12:43:23;;;;;;;6.93;1.25;;;12.40;99.90;;;;;;5009941;28;20026;-69
2024/02/20 12:45:48;;;;;;;3.60;1.20;;;12.90;99.90;;;;;;5011718;28;20486;-69
2024/02/20 12:48:15;;;;;;;5.78;0.90;;;12.80;99.90;;;;;;5010250;28;20038;-69
2024/02/20 12:50:40;;;;;;;4.57;1.63;;;12.10;99.90;;;;;;5010553;28;20044;-69
2024/02/20 12:53:07;;;;;;;2.05;1.23;;;11.70;99.90;;;;;;4998041;28;20034;-69
2024/02/20 12:55:37;;;;;;;12.15;1.98;;;11.90;99.90;;;;;;5010487;28;20033;-69